createdAt,value
2018-09-25T00:01:46.347Z,2.10
2018-09-25T00:04:19.850Z,2.27
2018-09-25T00:06:53.496Z,2.20
2018-09-25T00:09:27.111Z,2.37
2018-09-25T00:12:00.503Z,2.57
2018-09-25T00:14:34.157Z,2.37
2018-09-25T00:17:07.695Z,2.67
2018-09-25T00:19:41.250Z,2.40
2018-09-25T00:22:14.801Z,2.23
2018-09-25T00:24:48.462Z,2.07
2018-09-25T00:27:22.038Z,2.43
2018-09-25T00:29:55.652Z,2.57
2018-09-25T00:32:29.190Z,2.17
2018-09-25T00:35:02.781Z,2.07
2018-09-25T00:37:36.380Z,2.07
2018-09-25T00:40:10.214Z,1.93
2018-09-25T00:42:43.861Z,1.97
2018-09-25T00:45:17.417Z,2.30
2018-09-25T00:47:50.905Z,2.10
2018-09-25T00:50:24.499Z,2.30
2018-09-25T00:52:58.207Z,1.93
2018-09-25T00:55:31.808Z,2.23
2018-09-25T00:58:05.283Z,2.13
2018-09-25T01:00:38.988Z,1.87
2018-09-25T01:03:12.628Z,2.30
2018-09-25T01:05:46.225Z,2.20
2018-09-25T01:08:20.012Z,2.03
2018-09-25T01:10:53.976Z,1.90
2018-09-25T01:13:27.876Z,2.57
2018-09-25T01:16:01.350Z,2.00
2018-09-25T01:18:34.970Z,2.37
2018-09-25T01:21:08.602Z,2.37
2018-09-25T01:23:42.052Z,2.17
2018-09-25T01:26:15.647Z,2.10
2018-09-25T01:28:49.184Z,2.40
2018-09-25T01:31:22.734Z,2.40
2018-09-25T01:33:56.286Z,2.50
2018-09-25T01:36:29.948Z,2.83
2018-09-25T01:39:03.702Z,2.33
2018-09-25T01:41:37.384Z,2.00
2018-09-25T01:44:11.018Z,2.27
2018-09-25T01:46:44.661Z,2.47
2018-09-25T01:49:18.236Z,2.20
2018-09-25T01:51:52.064Z,3.20
2018-09-25T01:54:25.540Z,2.20
2018-09-25T01:56:59.074Z,2.30
2018-09-25T01:59:32.602Z,2.20
2018-09-25T02:02:06.018Z,2.50
2018-09-25T02:04:39.638Z,2.40
2018-09-25T02:07:13.114Z,2.40
2018-09-25T02:09:46.573Z,2.47
2018-09-25T02:12:20.086Z,2.10
2018-09-25T02:14:53.605Z,2.67
2018-09-25T02:17:27.492Z,2.47
2018-09-25T02:20:01.611Z,2.63
2018-09-25T02:22:35.096Z,2.87
2018-09-25T02:25:08.587Z,2.30
2018-09-25T02:27:42.233Z,2.00
2018-09-25T02:30:15.874Z,2.93
2018-09-25T02:32:49.492Z,3.07
2018-09-25T02:35:22.932Z,2.17
2018-09-25T02:37:56.313Z,2.67
2018-09-25T02:40:29.812Z,2.23
2018-09-25T02:43:03.258Z,2.40
2018-09-25T02:45:36.747Z,2.50
2018-09-25T02:48:10.259Z,2.23
2018-09-25T02:50:43.836Z,2.40
2018-09-25T02:53:17.676Z,2.47
2018-09-25T02:55:51.385Z,2.20
2018-09-25T02:58:24.967Z,2.90
2018-09-25T03:00:58.652Z,3.20
2018-09-25T03:03:32.573Z,2.83
2018-09-25T03:06:06.135Z,2.33
2018-09-25T03:08:39.712Z,2.70
2018-09-25T03:11:13.259Z,2.50
2018-09-25T03:13:46.928Z,2.30
2018-09-25T03:16:20.532Z,2.20
2018-09-25T03:18:54.042Z,3.23
2018-09-25T03:21:27.675Z,2.57
2018-09-25T03:24:01.340Z,2.00
2018-09-25T03:26:34.833Z,2.33
2018-09-25T03:29:08.381Z,2.80
2018-09-25T03:31:42.050Z,2.80
2018-09-25T03:34:15.767Z,2.53
2018-09-25T03:36:49.330Z,2.30
2018-09-25T03:39:23.088Z,2.80
2018-09-25T03:41:56.896Z,3.27
2018-09-25T03:44:30.394Z,2.77
2018-09-25T03:47:03.822Z,2.83
2018-09-25T03:49:37.402Z,3.30
2018-09-25T03:52:10.840Z,3.20
2018-09-25T03:54:44.372Z,3.40
2018-09-25T03:57:17.896Z,3.40
2018-09-25T03:59:51.314Z,3.03
2018-09-25T04:02:24.841Z,3.30
2018-09-25T04:04:58.389Z,3.63
2018-09-25T04:07:32.129Z,3.07
2018-09-25T04:10:05.733Z,3.03
2018-09-25T04:12:39.348Z,3.80
2018-09-25T04:15:12.913Z,3.10
2018-09-25T04:17:46.526Z,3.13
2018-09-25T04:20:20.020Z,3.17
2018-09-25T04:22:53.541Z,2.73
2018-09-25T04:25:27.174Z,2.70
2018-09-25T04:28:00.744Z,2.40
2018-09-25T04:30:34.395Z,2.60
2018-09-25T04:33:08.032Z,2.40
2018-09-25T04:35:41.792Z,2.70
2018-09-25T04:38:15.488Z,2.40
2018-09-25T04:40:49.186Z,2.77
2018-09-25T04:43:22.662Z,2.57
2018-09-25T04:45:56.063Z,2.27
2018-09-25T04:48:29.658Z,2.30
2018-09-25T04:51:03.240Z,2.53
2018-09-25T04:53:36.739Z,2.37
2018-09-25T04:56:10.326Z,2.30
2018-09-25T04:58:43.881Z,2.37
2018-09-25T05:01:17.334Z,2.10
2018-09-25T05:03:50.815Z,2.43
2018-09-25T05:06:24.451Z,2.30
2018-09-25T05:08:58.007Z,2.53
2018-09-25T05:11:31.545Z,2.87
2018-09-25T05:14:05.246Z,2.53
2018-09-25T05:16:39.468Z,2.87
2018-09-25T05:19:13.558Z,3.03
2018-09-25T05:21:47.238Z,2.77
2018-09-25T05:24:20.806Z,3.00
2018-09-25T05:26:54.394Z,3.30
2018-09-25T05:29:29.528Z,2.90
2018-09-25T05:32:03.229Z,3.47
2018-09-25T05:34:36.780Z,3.20
2018-09-25T05:37:10.666Z,3.00
2018-09-25T05:39:44.229Z,3.30
2018-09-25T05:42:17.913Z,3.00
2018-09-25T05:44:51.774Z,2.90
2018-09-25T05:47:25.397Z,3.20
2018-09-25T05:49:59.199Z,3.10
2018-09-25T05:52:32.880Z,2.90
2018-09-25T05:55:06.446Z,2.60
2018-09-25T05:57:39.968Z,3.17
2018-09-25T06:00:13.497Z,3.10
2018-09-25T06:02:47.131Z,2.83
2018-09-25T06:05:21.069Z,2.90
2018-09-25T06:07:54.481Z,3.07
2018-09-25T06:10:28.311Z,3.10
2018-09-25T06:13:01.840Z,3.20
2018-09-25T06:15:35.409Z,2.47
2018-09-25T06:18:08.989Z,2.60
2018-09-25T06:20:42.412Z,2.70
2018-09-25T06:23:15.885Z,2.73
2018-09-25T06:25:49.486Z,2.40
2018-09-25T06:28:22.987Z,2.57
2018-09-25T06:30:56.423Z,2.63
2018-09-25T06:33:29.965Z,2.17
2018-09-25T06:36:03.587Z,2.20
2018-09-25T06:38:37.261Z,2.03
2018-09-25T06:41:10.885Z,2.07
2018-09-25T06:43:44.891Z,1.77
2018-09-25T06:46:18.728Z,2.10
2018-09-25T06:48:52.408Z,2.07
2018-09-25T06:51:25.945Z,1.70
2018-09-25T06:53:59.507Z,1.87
2018-09-25T06:56:32.999Z,2.50
2018-09-25T06:59:06.553Z,2.27
2018-09-25T07:01:40.202Z,1.60
2018-09-25T07:04:20.310Z,1.77
2018-09-25T07:06:53.914Z,1.80
2018-09-25T07:09:27.474Z,1.90
2018-09-25T07:12:01.156Z,1.77
2018-09-25T07:14:34.861Z,1.83
2018-09-25T07:17:08.624Z,1.80
2018-09-25T07:19:42.272Z,1.40
2018-09-25T07:22:16.030Z,1.30
2018-09-25T07:24:49.723Z,1.73
2018-09-25T07:27:23.890Z,1.40
2018-09-25T07:29:58.492Z,1.67
2018-09-25T07:32:32.085Z,1.17
2018-09-25T07:35:05.548Z,1.40
2018-09-25T07:37:39.176Z,1.40
2018-09-25T07:40:12.827Z,1.37
2018-09-25T07:42:46.504Z,1.30
2018-09-25T07:45:20.043Z,1.63
2018-09-25T07:47:53.560Z,1.70
2018-09-25T07:50:26.999Z,1.50
2018-09-25T07:53:00.466Z,1.50
2018-09-25T07:55:34.012Z,1.30
2018-09-25T07:58:07.512Z,1.30
2018-09-25T08:00:41.229Z,1.67
2018-09-25T08:03:14.795Z,1.40
2018-09-25T08:05:48.302Z,1.53
2018-09-25T08:08:22.221Z,0.90
2018-09-25T08:10:56.760Z,1.33
2018-09-25T08:13:30.299Z,1.27
2018-09-25T08:16:03.820Z,1.23
2018-09-25T08:18:37.359Z,1.60
2018-09-25T08:21:10.926Z,1.70
2018-09-25T08:23:44.427Z,1.70
2018-09-25T08:26:18.057Z,1.60
2018-09-25T08:28:51.758Z,1.60
2018-09-25T08:31:25.454Z,2.03
2018-09-25T08:33:58.971Z,1.33
2018-09-25T08:36:32.459Z,1.47
2018-09-25T08:39:05.940Z,1.50
2018-09-25T08:41:39.448Z,1.30
2018-09-25T08:44:13.011Z,1.30
2018-09-25T08:46:46.516Z,1.20
2018-09-25T08:49:20.103Z,1.60
2018-09-25T08:51:53.742Z,1.50
2018-09-25T08:54:27.258Z,1.63
2018-09-25T08:57:00.921Z,1.50
2018-09-25T08:59:34.466Z,1.93
2018-09-25T09:02:08.129Z,1.37
2018-09-25T09:04:41.722Z,1.40
2018-09-25T09:07:15.534Z,1.57
2018-09-25T09:09:55.688Z,1.80
2018-09-25T09:12:29.248Z,1.30
2018-09-25T09:15:02.856Z,1.30
2018-09-25T09:17:36.698Z,2.10
2018-09-25T09:20:10.510Z,1.57
2018-09-25T09:22:44.014Z,1.47
2018-09-25T09:25:17.613Z,1.33
2018-09-25T09:27:51.180Z,1.43
2018-09-25T09:30:24.786Z,1.27
2018-09-25T09:32:58.675Z,1.27
2018-09-25T09:35:32.289Z,1.00
2018-09-25T09:38:06.476Z,1.27
2018-09-25T09:40:40.489Z,1.47
2018-09-25T09:43:14.388Z,1.30
2018-09-25T09:45:48.133Z,1.27
2018-09-25T09:48:21.639Z,1.20
2018-09-25T09:50:55.242Z,1.30
2018-09-25T09:53:28.988Z,1.20
2018-09-25T09:56:02.678Z,1.17
2018-09-25T09:58:36.253Z,1.20
2018-09-25T10:01:09.915Z,1.33
2018-09-25T10:03:43.826Z,1.30
2018-09-25T10:06:17.325Z,1.67
2018-09-25T10:08:50.864Z,0.90
2018-09-25T10:11:24.559Z,1.10
2018-09-25T10:13:58.184Z,1.40
2018-09-25T10:16:31.761Z,1.20
2018-09-25T10:19:05.236Z,1.50
2018-09-25T10:21:39.192Z,1.30
2018-09-25T10:24:12.852Z,1.70
2018-09-25T10:26:46.681Z,1.60
2018-09-25T10:29:20.176Z,1.17
2018-09-25T10:31:54.078Z,1.50
2018-09-25T10:34:28.121Z,1.43
2018-09-25T10:37:01.745Z,1.47
2018-09-25T10:39:35.309Z,1.30
2018-09-25T10:42:08.822Z,1.40
2018-09-25T10:44:42.417Z,1.03
2018-09-25T10:47:16.098Z,1.50
2018-09-25T10:49:49.751Z,1.63
2018-09-25T10:52:23.340Z,1.10
2018-09-25T10:54:56.898Z,1.13
2018-09-25T10:57:30.476Z,1.30
2018-09-25T11:00:03.993Z,1.50
2018-09-25T11:02:37.620Z,1.10
2018-09-25T11:05:11.021Z,1.00
2018-09-25T11:07:44.502Z,1.20
2018-09-25T11:10:18.087Z,1.20
2018-09-25T11:12:51.660Z,1.13
2018-09-25T11:15:25.166Z,1.20
2018-09-25T11:17:58.707Z,1.20
2018-09-25T11:20:32.252Z,1.23
2018-09-25T11:23:05.780Z,1.40
2018-09-25T11:25:39.345Z,1.23
2018-09-25T11:28:12.778Z,1.00
2018-09-25T11:30:46.391Z,0.93
2018-09-25T11:33:19.986Z,1.17
2018-09-25T11:35:53.604Z,1.63
2018-09-25T11:38:27.201Z,1.20
2018-09-25T11:41:00.845Z,1.40
2018-09-25T11:43:34.373Z,1.10
2018-09-25T11:46:07.890Z,1.13
2018-09-25T11:48:41.470Z,1.10
2018-09-25T11:51:14.958Z,1.20
2018-09-25T11:53:48.454Z,1.20
2018-09-25T11:56:22.049Z,1.00
2018-09-25T11:58:55.566Z,1.47
2018-09-25T12:01:29.133Z,1.23
2018-09-25T12:04:02.689Z,0.97
2018-09-25T12:06:36.277Z,0.90
2018-09-25T12:09:12.059Z,1.20
2018-09-25T12:11:45.547Z,1.00
2018-09-25T12:14:19.148Z,1.17
2018-09-25T12:16:52.670Z,0.90
2018-09-25T12:19:26.192Z,1.03
2018-09-25T12:21:59.638Z,1.20
2018-09-25T12:24:33.339Z,1.20
2018-09-25T12:27:07.152Z,1.10
2018-09-25T12:29:40.620Z,1.13
2018-09-25T12:32:14.212Z,1.40
2018-09-25T12:34:48.112Z,1.00
2018-09-25T12:37:21.740Z,1.17
2018-09-25T12:39:55.505Z,0.97
2018-09-25T12:42:28.963Z,1.10
2018-09-25T12:45:02.697Z,0.83
2018-09-25T12:47:36.207Z,1.13
2018-09-25T12:50:09.795Z,1.00
2018-09-25T12:52:50.218Z,1.03
2018-09-25T12:55:23.820Z,1.33
2018-09-25T12:57:57.546Z,1.40
2018-09-25T13:00:31.410Z,1.40
2018-09-25T13:03:05.041Z,0.90
2018-09-25T13:05:38.635Z,1.03
2018-09-25T13:08:12.089Z,1.20
2018-09-25T13:10:45.496Z,1.10
2018-09-25T13:13:19.034Z,1.00
2018-09-25T13:15:52.571Z,1.40
2018-09-25T13:18:26.150Z,1.27
2018-09-25T13:21:00.219Z,0.83
2018-09-25T13:23:33.801Z,1.10
2018-09-25T13:26:07.375Z,1.17
2018-09-25T13:28:40.845Z,0.90
2018-09-25T13:31:14.502Z,1.00
2018-09-25T13:33:47.904Z,1.30
2018-09-25T13:36:21.455Z,0.90
2018-09-25T13:38:54.970Z,1.00
2018-09-25T13:41:28.439Z,1.10
2018-09-25T13:44:02.081Z,0.90
2018-09-25T13:46:35.527Z,1.10
2018-09-25T13:49:09.010Z,1.00
2018-09-25T13:51:42.608Z,1.27
2018-09-25T13:54:16.153Z,1.03
2018-09-25T13:56:49.999Z,1.23
2018-09-25T13:59:23.760Z,1.00
2018-09-25T14:01:57.202Z,0.87
2018-09-25T14:04:31.629Z,1.00
2018-09-25T14:07:05.181Z,1.20
2018-09-25T14:09:38.771Z,1.67
2018-09-25T14:12:12.239Z,1.30
2018-09-25T14:14:45.729Z,1.10
2018-09-25T14:17:19.150Z,1.50
2018-09-25T14:19:52.517Z,0.90
2018-09-25T14:22:26.083Z,1.13
2018-09-25T14:24:59.551Z,1.03
2018-09-25T14:27:33.098Z,0.90
2018-09-25T14:30:06.667Z,1.00
2018-09-25T14:32:40.147Z,1.00
2018-09-25T14:35:13.697Z,1.20
2018-09-25T14:37:47.168Z,1.07
2018-09-25T14:40:20.764Z,1.10
2018-09-25T14:42:54.280Z,1.23
2018-09-25T14:45:27.727Z,1.13
2018-09-25T14:48:01.378Z,1.50
2018-09-25T14:50:34.960Z,1.10
2018-09-25T14:53:08.295Z,0.97
2018-09-25T14:55:41.786Z,0.97
2018-09-25T14:58:15.509Z,0.93
2018-09-25T15:00:49.044Z,1.00
2018-09-25T15:03:22.618Z,1.20
2018-09-25T15:05:56.132Z,1.10
2018-09-25T15:08:29.513Z,0.87
2018-09-25T15:11:03.150Z,0.90
2018-09-25T15:13:36.849Z,1.10
2018-09-25T15:16:10.197Z,1.00
2018-09-25T15:18:43.768Z,1.13
2018-09-25T15:21:17.420Z,1.13
2018-09-25T15:23:50.970Z,1.20
2018-09-25T15:26:24.492Z,0.83
2018-09-25T15:28:57.994Z,1.03
2018-09-25T15:31:31.568Z,1.10
2018-09-25T15:34:05.159Z,1.10
2018-09-25T15:36:38.737Z,1.07
2018-09-25T15:39:13.213Z,1.30
2018-09-25T15:41:47.017Z,1.10
2018-09-25T15:44:20.598Z,1.27
2018-09-25T15:46:54.177Z,1.20
2018-09-25T15:49:27.691Z,1.33
2018-09-25T15:52:01.325Z,0.97
2018-09-25T15:54:34.968Z,1.00
2018-09-25T15:57:08.573Z,1.10
2018-09-25T15:59:42.169Z,1.03
2018-09-25T16:02:15.571Z,1.10
2018-09-25T16:04:49.200Z,0.90
2018-09-25T16:07:22.703Z,1.03
2018-09-25T16:09:56.300Z,1.03
2018-09-25T16:12:29.763Z,1.63
2018-09-25T16:15:03.396Z,1.20
2018-09-25T16:17:37.031Z,1.10
2018-09-25T16:20:10.525Z,1.10
2018-09-25T16:22:44.129Z,1.10
2018-09-25T16:25:17.891Z,1.17
2018-09-25T16:27:51.423Z,0.83
2018-09-25T16:30:25.046Z,1.10
2018-09-25T16:32:58.878Z,1.30
2018-09-25T16:35:32.611Z,1.20
2018-09-25T16:38:06.237Z,1.20
2018-09-25T16:40:39.834Z,1.10
2018-09-25T16:43:13.484Z,1.40
2018-09-25T16:45:47.292Z,1.23
2018-09-25T16:48:21.146Z,1.43
2018-09-25T16:50:54.967Z,1.33
2018-09-25T16:53:28.513Z,1.27
2018-09-25T16:56:01.974Z,1.10
2018-09-25T16:58:35.652Z,1.20
2018-09-25T17:01:09.167Z,1.23
2018-09-25T17:03:42.530Z,1.50
2018-09-25T17:06:15.955Z,1.13
2018-09-25T17:08:49.581Z,1.40
2018-09-25T17:11:23.092Z,1.30
2018-09-25T17:13:56.635Z,1.03
2018-09-25T17:16:30.135Z,1.10
2018-09-25T17:19:03.849Z,1.20
2018-09-25T17:21:37.520Z,1.30
2018-09-25T17:24:12.417Z,1.43
2018-09-25T17:26:46.050Z,1.40
2018-09-25T17:29:19.639Z,1.50
2018-09-25T17:31:53.129Z,1.57
2018-09-25T17:34:26.660Z,1.57
2018-09-25T17:37:00.369Z,1.57
2018-09-25T17:39:33.943Z,1.57
2018-09-25T17:42:07.542Z,1.73
2018-09-25T17:44:41.154Z,1.50
2018-09-25T17:47:14.871Z,1.90
2018-09-25T17:49:48.414Z,1.77
2018-09-25T17:52:21.996Z,1.97
2018-09-25T17:54:55.492Z,1.80
2018-09-25T17:57:29.094Z,1.87
2018-09-25T18:00:02.628Z,2.00
2018-09-25T18:02:36.479Z,1.90
2018-09-25T18:05:10.019Z,1.77
2018-09-25T18:07:43.726Z,1.67
2018-09-25T18:10:17.291Z,1.60
2018-09-25T18:12:51.044Z,1.67
2018-09-25T18:15:24.526Z,1.70
2018-09-25T18:17:58.194Z,2.23
2018-09-25T18:20:31.865Z,1.70
2018-09-25T18:23:05.462Z,1.30
2018-09-25T18:25:38.949Z,1.50
2018-09-25T18:28:12.657Z,1.67
2018-09-25T18:30:46.270Z,1.30
2018-09-25T18:33:19.728Z,1.43
2018-09-25T18:35:53.395Z,1.80
2018-09-25T18:38:27.099Z,1.40
2018-09-25T18:41:00.758Z,1.20
2018-09-25T18:43:34.434Z,1.77
2018-09-25T18:46:08.169Z,2.20
2018-09-25T18:48:41.769Z,1.73
2018-09-25T18:51:15.445Z,1.50
2018-09-25T18:53:49.031Z,2.10
2018-09-25T18:56:22.541Z,1.73
2018-09-25T18:58:56.379Z,2.40
2018-09-25T19:01:30.009Z,2.10
2018-09-25T19:04:03.788Z,2.13
2018-09-25T19:06:37.468Z,2.40
2018-09-25T19:09:12.642Z,2.23
2018-09-25T19:11:46.403Z,2.30
2018-09-25T19:14:19.884Z,1.83
2018-09-25T19:16:53.597Z,2.10
2018-09-25T19:19:27.128Z,2.03
2018-09-25T19:22:00.797Z,2.80
2018-09-25T19:24:34.574Z,2.70
2018-09-25T19:27:08.183Z,2.80
2018-09-25T19:29:41.941Z,2.37
2018-09-25T19:32:15.664Z,2.40
2018-09-25T19:34:50.351Z,2.03
2018-09-25T19:37:24.121Z,2.27
2018-09-25T19:39:57.602Z,1.87
2018-09-25T19:42:31.247Z,1.80
2018-09-25T19:45:04.878Z,1.70
2018-09-25T19:47:38.496Z,2.10
2018-09-25T19:50:12.117Z,1.57
2018-09-25T19:52:45.759Z,1.80
2018-09-25T19:55:19.546Z,1.73
2018-09-25T19:57:53.232Z,1.73
2018-09-25T20:00:27.118Z,1.70
2018-09-25T20:03:00.615Z,2.03
2018-09-25T20:05:34.212Z,1.90
2018-09-25T20:08:07.819Z,2.07
2018-09-25T20:10:41.491Z,1.80
2018-09-25T20:13:15.080Z,2.30
2018-09-25T20:15:48.726Z,1.93
2018-09-25T20:18:29.745Z,2.47
2018-09-25T20:21:03.401Z,2.27
2018-09-25T20:23:37.047Z,1.90
2018-09-25T20:26:10.891Z,2.80
2018-09-25T20:28:44.531Z,2.37
2018-09-25T20:31:18.155Z,4.37
2018-09-25T20:33:51.833Z,3.57
2018-09-25T20:36:25.358Z,3.60
2018-09-25T20:38:58.953Z,3.50
2018-09-25T20:41:32.597Z,2.73
2018-09-25T20:44:06.057Z,3.13
2018-09-25T20:46:39.719Z,2.93
2018-09-25T20:49:13.526Z,2.83
2018-09-25T20:51:47.182Z,2.47
2018-09-25T20:54:20.925Z,2.43
2018-09-25T20:56:54.567Z,2.50
2018-09-25T20:59:28.144Z,2.00
2018-09-25T21:02:02.023Z,2.10
2018-09-25T21:04:35.610Z,1.90
2018-09-25T21:07:09.171Z,2.47
2018-09-25T21:09:43.240Z,2.90
2018-09-25T21:12:16.886Z,3.00
2018-09-25T21:14:50.425Z,3.33
2018-09-25T21:17:24.019Z,3.07
2018-09-25T21:19:57.637Z,2.50
2018-09-25T21:22:31.487Z,2.80
2018-09-25T21:25:05.188Z,2.60
2018-09-25T21:27:38.763Z,2.10
2018-09-25T21:30:12.299Z,2.67
2018-09-25T21:32:46.061Z,2.37
2018-09-25T21:35:19.651Z,2.83
2018-09-25T21:37:53.187Z,3.07
2018-09-25T21:40:26.964Z,2.93
2018-09-25T21:43:00.501Z,2.63
2018-09-25T21:45:34.226Z,2.80
2018-09-25T21:48:07.888Z,2.40
2018-09-25T21:50:41.562Z,2.67
2018-09-25T21:53:15.426Z,2.77
2018-09-25T21:55:49.099Z,2.60
2018-09-25T21:58:22.699Z,3.10
2018-09-25T22:00:56.334Z,2.63
2018-09-25T22:03:29.801Z,2.50
2018-09-25T22:06:03.356Z,2.70
2018-09-25T22:08:36.977Z,2.73
2018-09-25T22:11:10.617Z,2.33
2018-09-25T22:13:44.193Z,2.20
2018-09-25T22:16:18.010Z,2.43
2018-09-25T22:18:51.590Z,2.57
2018-09-25T22:21:25.386Z,2.63
2018-09-25T22:23:58.951Z,2.67
2018-09-25T22:26:32.676Z,2.57
2018-09-25T22:29:06.194Z,2.40
2018-09-25T22:31:39.771Z,2.80
2018-09-25T22:34:13.498Z,2.70
2018-09-25T22:36:47.191Z,2.67
2018-09-25T22:39:20.818Z,2.90
2018-09-25T22:41:54.400Z,3.03
2018-09-25T22:44:27.822Z,2.73
2018-09-25T22:47:01.348Z,3.40
2018-09-25T22:49:34.843Z,3.13
2018-09-25T22:52:08.412Z,3.20
2018-09-25T22:54:41.974Z,2.70
2018-09-25T22:57:15.571Z,3.25
2018-09-25T22:59:49.402Z,2.80
2018-09-25T23:02:23.081Z,3.10
2018-09-25T23:04:56.546Z,3.30
2018-09-25T23:07:30.063Z,4.00
2018-09-25T23:10:03.806Z,3.90
2018-09-25T23:12:37.277Z,3.67
2018-09-25T23:15:10.852Z,2.80
2018-09-25T23:17:44.393Z,3.07
2018-09-25T23:20:18.013Z,2.72
2018-09-25T23:22:51.513Z,3.05
2018-09-25T23:25:25.285Z,2.90
2018-09-25T23:27:58.767Z,2.83
2018-09-25T23:30:32.371Z,2.60
2018-09-25T23:33:06.117Z,2.55
2018-09-25T23:35:39.734Z,2.67
2018-09-25T23:38:13.255Z,2.90
2018-09-25T23:40:47.715Z,2.55
2018-09-25T23:44:21.995Z,2.65
2018-09-25T23:48:59.218Z,2.35
2018-09-25T23:51:45.543Z,2.75
2018-09-25T23:54:54.297Z,2.40
2018-09-25T23:57:26.303Z,2.87
